Time;durP1;ratioP1;P1;durP2;ratioP2;P2;SDS_P1;SDS_P2;PMS_P1;PMS_P2;Temp;Humidity;BMP_temperature;BMP_pressure;BME280_temperature;BME280_humidity;BME280_pressure;Samples;Min_cycle;Max_cycle;Signal;HPM_P1;HPM_P2
2021/09/17 00:01:54;;;;;;;24.25;11.20;;;;;;;12.45;71.23;100146.76;1702932;84;21045;-75
2021/09/17 00:04:20;;;;;;;23.05;12.20;;;;;;;12.44;70.33;100140.59;1703125;84;21082;-73
2021/09/17 00:06:47;;;;;;;22.65;11.53;;;;;;;12.46;72.00;100137.89;1702750;84;21062;-74
2021/09/17 00:09:15;;;;;;;29.30;12.93;;;;;;;12.48;72.27;100132.09;1703077;84;21038;-72
2021/09/17 00:11:43;;;;;;;26.70;12.33;;;;;;;12.51;72.07;100135.90;1702806;84;21069;-74
2021/09/17 00:14:11;;;;;;;26.73;13.10;;;;;;;12.54;71.39;100134.46;1702976;84;21047;-73
2021/09/17 00:16:38;;;;;;;26.75;12.95;;;;;;;12.56;70.79;100133.90;1703477;84;21038;-72
2021/09/17 00:19:06;;;;;;;32.78;12.85;;;;;;;12.59;71.76;100133.78;1703033;84;21625;-73
2021/09/17 00:21:33;;;;;;;30.37;11.38;;;;;;;12.61;71.07;100131.93;1702417;84;21088;-73
2021/09/17 00:24:01;;;;;;;23.70;11.93;;;;;;;12.62;71.06;100128.34;1702666;83;21594;-74
2021/09/17 00:26:28;;;;;;;24.72;11.18;;;;;;;12.67;70.89;100128.14;1704470;83;21034;-74
2021/09/17 00:28:55;;;;;;;23.35;11.43;;;;;;;12.71;70.87;100122.64;1704714;83;21601;-73
2021/09/17 00:31:23;;;;;;;20.70;10.18;;;;;;;12.75;70.86;100124.22;1704380;84;21121;-73
2021/09/17 00:33:49;;;;;;;17.48;9.43;;;;;;;12.77;71.26;100121.52;1684156;84;21663;-75
2021/09/17 00:36:15;;;;;;;22.30;10.55;;;;;;;12.77;71.69;100114.44;1704405;84;21303;-72
2021/09/17 00:38:42;;;;;;;24.10;10.48;;;;;;;12.76;72.15;100118.00;1704437;84;21006;-71
2021/09/17 00:41:11;;;;;;;21.50;10.63;;;;;;;12.75;72.57;100113.66;1704352;84;21030;-72
2021/09/17 00:43:39;;;;;;;26.23;10.90;;;;;;;12.75;72.33;100107.05;1704418;84;21656;-74
2021/09/17 00:46:06;;;;;;;23.62;11.30;;;;;;;12.73;71.76;100107.58;1704482;84;21082;-72
2021/09/17 00:48:34;;;;;;;22.50;12.15;;;;;;;12.70;73.57;100099.80;1718119;83;21114;-72
2021/09/17 00:51:01;;;;;;;20.80;9.63;;;;;;;12.68;71.71;100095.05;1718136;83;21631;-71
2021/09/17 00:53:33;;;;;;;25.05;12.07;;;;;;;12.67;71.43;100095.96;1718183;83;21080;-72
2021/09/17 00:55:58;;;;;;;24.25;11.57;;;;;;;12.63;71.09;100098.37;1691265;83;21101;-72
2021/09/17 00:58:24;;;;;;;21.35;10.80;;;;;;;12.59;70.77;100088.88;1718335;83;20994;-73
2021/09/17 01:00:50;;;;;;;20.90;10.90;;;;;;;12.56;70.78;100091.63;1718181;83;21522;-71
2021/09/17 01:03:19;;;;;;;25.57;11.08;;;;;;;12.55;70.93;100080.69;1718303;83;21097;-72
2021/09/17 01:05:46;;;;;;;26.02;12.00;;;;;;;12.53;71.10;100078.58;1717968;83;21067;-72
2021/09/17 01:08:12;;;;;;;25.40;11.03;;;;;;;12.53;71.02;100086.03;1718272;83;21100;-72
2021/09/17 01:10:42;;;;;;;21.37;11.20;;;;;;;12.55;71.10;100087.29;1718221;83;21454;-72
2021/09/17 01:13:09;;;;;;;24.35;10.78;;;;;;;12.55;71.22;100080.69;1718614;83;21120;-72
2021/09/17 01:15:37;;;;;;;23.38;10.55;;;;;;;12.55;71.47;100079.37;1691808;83;21046;-73
2021/09/17 01:18:03;;;;;;;21.77;9.55;;;;;;;12.57;71.83;100070.91;1718246;83;21098;-73
2021/09/17 01:20:32;;;;;;;23.35;10.05;;;;;;;12.57;71.36;100077.52;1717959;83;21025;-73
2021/09/17 01:23:00;;;;;;;20.57;9.08;;;;;;;12.58;71.76;100073.49;1715564;83;21489;-71
2021/09/17 01:25:26;;;;;;;21.00;10.78;;;;;;;12.59;71.25;100064.63;1717780;83;21158;-72
2021/09/17 01:27:54;;;;;;;25.60;11.33;;;;;;;12.62;73.51;100059.66;1717938;83;21102;-71
2021/09/17 01:30:21;;;;;;;17.10;9.40;;;;;;;12.62;71.80;100055.70;1718065;83;21036;-72
2021/09/17 01:32:50;;;;;;;22.60;10.20;;;;;;;12.65;73.79;100052.05;1718102;83;21045;-72
2021/09/17 01:35:20;;;;;;;23.55;10.75;;;;;;;12.66;72.50;100042.74;1717168;83;21053;-72
2021/09/17 01:37:48;;;;;;;18.10;10.13;;;;;;;12.70;72.76;100040.36;1716982;83;21477;-71
2021/09/17 01:40:15;;;;;;;21.68;9.98;;;;;;;12.72;71.01;100038.94;1717872;83;21049;-72
2021/09/17 01:42:41;;;;;;;25.57;12.13;;;;;;;12.73;71.55;100037.56;1718091;83;21608;-72
2021/09/17 01:45:09;;;;;;;21.87;10.38;;;;;;;12.73;71.17;100033.59;1718267;83;21083;-72
2021/09/17 01:47:35;;;;;;;18.55;10.30;;;;;;;12.75;71.12;100037.02;1717881;83;21584;-72
2021/09/17 01:50:03;;;;;;;20.97;9.00;;;;;;;12.75;70.69;100031.73;1717879;83;21044;-72
2021/09/17 01:52:30;;;;;;;21.52;9.70;;;;;;;12.74;70.30;100024.72;1717757;83;21097;-72
2021/09/17 01:54:58;;;;;;;21.82;10.85;;;;;;;12.76;70.49;100032.11;1717947;83;21064;-72
2021/09/17 01:57:26;;;;;;;21.57;9.95;;;;;;;12.76;70.96;100020.23;1717742;83;21060;-72
2021/09/17 01:59:53;;;;;;;21.75;10.82;;;;;;;12.74;70.07;100022.55;1717947;83;21025;-71
2021/09/17 02:02:20;;;;;;;17.90;9.43;;;;;;;12.74;70.80;100022.08;1717636;83;21104;-72
2021/09/17 02:04:47;;;;;;;20.10;11.28;;;;;;;12.72;70.76;100023.97;1717538;83;21069;-71
2021/09/17 02:07:15;;;;;;;17.73;10.18;;;;;;;12.71;70.84;100016.95;1717661;83;21113;-71
2021/09/17 02:09:42;;;;;;;17.12;9.38;;;;;;;12.70;69.95;100017.89;1717793;83;21500;-72
2021/09/17 02:12:10;;;;;;;20.17;10.18;;;;;;;12.70;71.19;100002.05;1717887;83;20986;-72
2021/09/17 02:14:38;;;;;;;20.45;10.15;;;;;;;12.70;70.52;100002.48;1718235;83;21199;-71
2021/09/17 02:17:07;;;;;;;19.25;10.70;;;;;;;12.69;69.95;99995.03;1717856;83;21069;-72
2021/09/17 02:19:34;;;;;;;20.00;9.50;;;;;;;12.73;70.59;99990.47;1709097;83;21082;-75
2021/09/17 02:22:01;;;;;;;18.75;9.88;;;;;;;12.74;69.24;99990.38;1681151;84;21563;-74
2021/09/17 02:24:28;;;;;;;21.95;10.15;;;;;;;12.77;69.16;99992.89;1692274;83;21128;-75
2021/09/17 02:26:54;;;;;;;20.57;10.30;;;;;;;12.78;69.07;99986.66;1718166;83;21102;-74
2021/09/17 02:29:21;;;;;;;22.48;9.88;;;;;;;12.80;69.48;99990.09;1718104;83;21041;-74
2021/09/17 02:31:48;;;;;;;24.45;9.33;;;;;;;12.78;69.15;99986.66;1717913;83;21029;-75
2021/09/17 02:34:14;;;;;;;21.95;10.00;;;;;;;12.77;69.20;99978.83;1718322;83;21116;-74
2021/09/17 02:36:41;;;;;;;20.35;10.03;;;;;;;12.78;69.31;99978.73;1704739;83;21121;-73
2021/09/17 02:39:09;;;;;;;20.35;9.53;;;;;;;12.81;69.35;99983.01;1706324;83;21233;-75
2021/09/17 02:41:35;;;;;;;18.92;9.63;;;;;;;12.82;68.93;99983.89;1718209;83;21041;-75
2021/09/17 02:44:03;;;;;;;20.32;9.58;;;;;;;12.83;68.88;99977.66;1718206;83;21108;-73
2021/09/17 02:46:29;;;;;;;15.05;9.35;;;;;;;12.86;68.96;99970.89;1717792;83;21017;-75
2021/09/17 02:48:56;;;;;;;21.95;8.75;;;;;;;12.87;68.37;99966.86;1706285;83;21097;-73
2021/09/17 02:51:23;;;;;;;22.65;9.33;;;;;;;12.91;67.67;99964.94;1704491;84;21151;-73
2021/09/17 02:53:50;;;;;;;20.70;9.48;;;;;;;12.96;67.28;99962.92;1704686;84;21133;-73
2021/09/17 02:56:18;;;;;;;19.87;9.20;;;;;;;13.00;66.26;99956.55;1704292;83;21514;-73
2021/09/17 02:58:45;;;;;;;18.07;8.28;;;;;;;13.04;66.73;99956.77;1703133;84;21038;-73
2021/09/17 03:01:11;;;;;;;18.60;9.65;;;;;;;13.06;67.25;99952.27;1703497;84;21049;-72
2021/09/17 03:03:38;;;;;;;15.90;8.38;;;;;;;13.09;66.55;99954.77;1694607;83;21600;-72
2021/09/17 03:06:05;;;;;;;17.27;8.13;;;;;;;13.13;66.68;99959.42;1689302;84;21218;-73
2021/09/17 03:08:32;;;;;;;16.05;7.95;;;;;;;13.13;66.83;99956.30;1689491;84;21053;-74
2021/09/17 03:10:58;;;;;;;16.95;8.38;;;;;;;13.15;66.59;99947.83;1701594;84;21005;-73
2021/09/17 03:13:27;;;;;;;18.35;9.75;;;;;;;13.15;65.58;99945.19;1699773;84;21092;-71
2021/09/17 03:15:54;;;;;;;18.00;8.90;;;;;;;13.16;65.13;99948.23;1703821;84;21151;-74
2021/09/17 03:18:22;;;;;;;17.50;9.00;;;;;;;13.18;64.81;99951.66;1704267;84;21058;-72
2021/09/17 03:20:51;;;;;;;24.98;9.25;;;;;;;13.19;65.10;99937.49;1693227;84;21631;-73
2021/09/17 03:23:19;;;;;;;16.50;9.43;;;;;;;13.19;64.43;99940.14;1690368;84;21117;-72
2021/09/17 03:25:48;;;;;;;18.20;7.95;;;;;;;13.21;64.76;99942.24;1702253;84;22173;-73
2021/09/17 03:28:16;;;;;;;20.20;9.23;;;;;;;13.20;64.03;99935.26;1704692;84;21756;-74
2021/09/17 03:30:42;;;;;;;22.32;9.40;;;;;;;13.23;63.71;99933.77;1693000;84;21061;-74
2021/09/17 03:33:11;;;;;;;17.23;8.70;;;;;;;13.27;63.67;99932.28;1690086;84;21106;-74
2021/09/17 03:35:39;;;;;;;17.75;7.90;;;;;;;13.29;63.27;99937.06;1690239;84;21545;-75
2021/09/17 03:38:06;;;;;;;25.60;9.75;;;;;;;13.34;63.58;99937.67;1702847;83;21093;-72
2021/09/17 03:40:36;;;;;;;23.90;9.75;;;;;;;13.39;64.59;99936.98;1692901;83;21579;-71
2021/09/17 03:43:04;;;;;;;22.93;9.53;;;;;;;13.41;64.57;99937.30;1690004;84;21584;-73
2021/09/17 03:45:32;;;;;;;20.92;10.13;;;;;;;13.31;62.88;99906.95;1690621;84;21094;-72
2021/09/17 03:48:05;;;;;;;19.27;9.38;;;;;;;13.44;63.19;99927.02;1689946;83;21088;-73
2021/09/17 03:50:31;;;;;;;21.75;8.75;;;;;;;13.48;62.39;99928.58;1689792;83;21065;-73
2021/09/17 03:52:58;;;;;;;20.48;8.90;;;;;;;13.49;61.83;99922.34;1689886;84;21572;-74
2021/09/17 03:55:26;;;;;;;19.48;7.78;;;;;;;13.53;61.82;99918.60;1689988;83;21116;-73
2021/09/17 03:57:53;;;;;;;19.00;8.78;;;;;;;13.54;61.96;99922.09;1689792;84;21094;-74
2021/09/17 04:00:20;;;;;;;21.48;9.18;;;;;;;13.55;61.57;99904.83;1692129;84;21109;-72
2021/09/17 04:02:46;;;;;;;15.32;9.35;;;;;;;13.54;61.48;99901.78;1704575;83;21065;-71
2021/09/17 04:05:13;;;;;;;23.15;8.88;;;;;;;13.57;61.99;99904.28;1698913;84;22334;-72
2021/09/17 04:07:41;;;;;;;16.00;7.55;;;;;;;13.58;61.74;99900.69;1690042;84;21104;-71
2021/09/17 04:10:10;;;;;;;24.27;8.30;;;;;;;13.58;61.68;99890.10;1698665;84;21006;-71
2021/09/17 04:12:36;;;;;;;16.75;7.87;;;;;;;13.59;61.29;99889.16;1707153;84;20995;-71
2021/09/17 04:15:07;;;;;;;17.55;8.28;;;;;;;13.60;61.46;99890.03;1704289;84;22045;-73
2021/09/17 04:17:33;;;;;;;16.67;8.45;;;;;;;13.60;61.20;99890.88;1700968;84;21789;-72
2021/09/17 04:20:03;;;;;;;17.85;7.92;;;;;;;13.49;61.20;99868.58;1697139;83;21446;-72
2021/09/17 04:22:32;;;;;;;18.82;7.37;;;;;;;13.60;61.53;99885.59;1704648;84;22261;-71
2021/09/17 04:25:00;;;;;;;16.40;8.10;;;;;;;13.60;62.04;99872.36;1704819;83;21541;-72
2021/09/17 04:27:28;;;;;;;17.07;7.80;;;;;;;13.62;61.56;99875.78;1704872;84;21033;-72
2021/09/17 04:29:56;;;;;;;17.90;7.78;;;;;;;13.66;63.34;99868.98;1704900;84;21047;-72
2021/09/17 04:32:23;;;;;;;16.20;7.03;;;;;;;13.66;63.06;99864.55;1704858;84;21136;-72
2021/09/17 04:34:49;;;;;;;16.85;8.48;;;;;;;13.61;61.47;99858.17;1705089;84;21085;-73
2021/09/17 04:37:17;;;;;;;18.40;7.97;;;;;;;13.66;61.45;99865.02;1701612;84;21101;-75
2021/09/17 04:39:44;;;;;;;29.82;8.43;;;;;;;13.66;61.11;99865.02;1681417;84;21570;-72
2021/09/17 04:42:11;;;;;;;17.77;7.78;;;;;;;13.67;61.40;99860.13;1697778;83;21105;-72
2021/09/17 04:44:39;;;;;;;24.92;9.43;;;;;;;13.66;61.51;99855.76;1681953;84;21031;-71
2021/09/17 04:47:05;;;;;;;27.82;9.93;;;;;;;13.68;61.85;99849.92;1702573;84;21470;-71
2021/09/17 04:49:33;;;;;;;24.07;9.58;;;;;;;13.70;61.71;99858.63;1698443;83;21124;-72
2021/09/17 04:52:00;;;;;;;22.95;9.65;;;;;;;13.73;62.08;99854.48;1703038;83;21218;-72
2021/09/17 04:54:28;;;;;;;16.02;8.40;;;;;;;13.75;61.85;99861.88;1717011;83;21065;-72
2021/09/17 04:56:54;;;;;;;16.97;8.33;;;;;;;13.74;61.53;99860.18;1717029;83;21049;-72
2021/09/17 04:59:21;;;;;;;15.65;7.75;;;;;;;13.73;61.37;99859.78;1715998;83;21080;-72
2021/09/17 05:01:48;;;;;;;24.27;8.28;;;;;;;13.71;61.59;99857.67;1719023;83;21084;-72
2021/09/17 05:04:15;;;;;;;21.12;7.67;;;;;;;13.74;61.68;99857.53;1715801;83;21061;-73
2021/09/17 05:06:41;;;;;;;19.60;8.45;;;;;;;13.77;62.43;99859.53;1716941;83;21149;-71
2021/09/17 05:09:07;;;;;;;24.02;9.13;;;;;;;13.79;62.54;99860.78;1712845;83;21120;-71
2021/09/17 05:11:38;;;;;;;20.95;8.05;;;;;;;13.83;61.92;99855.71;1716811;83;21671;-72
2021/09/17 05:14:04;;;;;;;13.18;6.70;;;;;;;13.86;62.73;99855.53;1714262;83;21948;-71
2021/09/17 05:16:33;;;;;;;18.57;7.83;;;;;;;13.91;62.82;99852.16;1716527;83;21107;-71
2021/09/17 05:19:00;;;;;;;18.70;8.05;;;;;;;13.97;62.45;99847.00;1698147;83;21166;-72
2021/09/17 05:21:29;;;;;;;20.90;8.98;;;;;;;14.02;62.19;99846.27;1692507;83;21663;-71
2021/09/17 05:23:57;;;;;;;16.80;8.65;;;;;;;14.10;61.62;99848.00;1694686;83;21058;-72
2021/09/17 05:26:23;;;;;;;19.90;8.80;;;;;;;14.18;61.18;99842.30;1712514;83;21044;-72
2021/09/17 05:28:51;;;;;;;20.20;8.10;;;;;;;14.27;60.35;99844.42;1698146;83;21635;-72
2021/09/17 05:31:18;;;;;;;21.27;8.38;;;;;;;14.37;60.49;99844.27;1711834;83;21524;-70
2021/09/17 05:33:44;;;;;;;21.35;8.05;;;;;;;14.48;59.74;99845.83;1691611;83;21103;-73
2021/09/17 05:36:11;;;;;;;24.82;7.87;;;;;;;14.58;59.39;99842.69;1680784;83;21652;-73
2021/09/17 05:38:37;;;;;;;17.42;7.53;;;;;;;14.71;59.33;99844.16;1698748;83;21040;-74
2021/09/17 05:41:05;;;;;;;19.77;7.33;;;;;;;14.82;59.81;99835.95;1708301;83;21054;-69
2021/09/17 05:43:32;;;;;;;23.40;7.33;;;;;;;14.95;58.80;99831.23;1712590;83;21133;-71
2021/09/17 05:45:59;;;;;;;14.60;6.92;;;;;;;15.07;58.08;99830.52;1712440;83;21077;-70
2021/09/17 05:48:26;;;;;;;22.90;7.37;;;;;;;15.15;57.79;99817.63;1713799;83;21445;-69
2021/09/17 05:50:53;;;;;;;26.50;7.20;;;;;;;15.26;57.91;99812.52;1718169;83;21050;-71
2021/09/17 05:53:20;;;;;;;21.45;6.95;;;;;;;15.40;57.95;99808.17;1718219;83;20998;-71
2021/09/17 05:55:47;;;;;;;21.52;6.60;;;;;;;15.51;57.22;99805.70;1718198;83;21569;-72
2021/09/17 05:58:14;;;;;;;13.60;5.05;;;;;;;15.65;56.27;99795.06;1718138;83;21584;-70
2021/09/17 06:00:40;;;;;;;20.25;6.60;;;;;;;15.81;57.77;99796.78;1717927;83;21591;-72
2021/09/17 06:03:10;;;;;;;19.37;6.97;;;;;;;15.93;56.60;99793.33;1718008;83;21065;-72
2021/09/17 06:05:37;;;;;;;22.70;7.30;;;;;;;16.03;56.49;99790.92;1718032;83;21575;-72
2021/09/17 06:08:05;;;;;;;22.37;7.80;;;;;;;16.09;55.95;99788.72;1718006;83;21544;-71
2021/09/17 06:10:33;;;;;;;22.95;8.90;;;;;;;16.06;54.00;99783.62;1715830;83;21049;-71
2021/09/17 06:13:02;;;;;;;24.70;9.98;;;;;;;16.05;55.14;99792.52;1705416;83;21088;-72
2021/09/17 06:15:28;;;;;;;22.77;9.90;;;;;;;16.10;54.93;99793.55;1718127;83;21050;-73
2021/09/17 06:17:55;;;;;;;25.72;9.73;;;;;;;16.17;54.19;99788.20;1718263;83;21080;-71
2021/09/17 06:20:21;;;;;;;24.67;9.70;;;;;;;16.23;53.96;99788.30;1718116;83;21058;-71
2021/09/17 06:22:53;;;;;;;16.73;8.48;;;;;;;16.33;54.16;99781.41;1717919;83;21075;-72
2021/09/17 06:25:20;;;;;;;22.98;8.55;;;;;;;16.46;53.49;99778.31;1718105;82;21033;-71
2021/09/17 06:27:46;;;;;;;21.82;7.92;;;;;;;16.68;53.02;99766.22;1718261;83;21114;-73
2021/09/17 06:30:14;;;;;;;17.05;7.12;;;;;;;17.12;51.92;99762.36;1717984;83;21057;-72
2021/09/17 06:32:40;;;;;;;18.65;7.80;;;;;;;17.64;50.37;99759.11;1718411;83;21121;-72
2021/09/17 06:35:09;;;;;;;16.80;7.03;;;;;;;18.31;49.67;99759.98;1717997;83;21072;-71
2021/09/17 06:37:48;;;;;;;15.85;5.90;;;;;;;18.88;47.80;99755.20;1718787;83;21067;-82
2021/09/17 06:40:15;;;;;;;12.25;6.20;;;;;;;19.26;46.60;99752.70;1718979;83;21076;-79
2021/09/17 06:42:41;;;;;;;18.87;6.35;;;;;;;19.30;46.44;99748.79;1718498;83;21095;-78
2021/09/17 06:45:08;;;;;;;16.00;6.30;;;;;;;19.24;46.81;99746.62;1718416;83;21062;-79
2021/09/17 06:47:55;;;;;;;19.00;5.78;;;;;;;19.18;47.07;99745.77;1718533;83;21272;-79
2021/09/17 06:50:25;;;;;;;16.37;6.08;;;;;;;19.16;47.30;99749.04;1706832;83;21114;-78
2021/09/17 06:52:53;;;;;;;13.53;5.62;;;;;;;19.14;47.41;99745.64;1704593;84;21584;-81
2021/09/17 06:55:23;;;;;;;16.85;5.62;;;;;;;19.11;47.69;99743.22;1686886;84;21068;-82
2021/09/17 06:57:55;;;;;;;16.23;6.28;;;;;;;19.12;48.07;99740.45;1683242;84;22009;-80
2021/09/17 07:03:06;;;;;;;18.98;6.22;;;;;;;19.19;48.83;99732.80;1790982;79;22583;-80
2021/09/17 07:05:33;;;;;;;16.97;6.60;;;;;;;19.33;49.19;99736.55;1755421;81;21881;-81
2021/09/17 07:08:06;;;;;;;19.60;5.90;;;;;;;19.53;49.11;99736.27;1755787;81;21117;-79
2021/09/17 07:10:36;;;;;;;18.55;6.33;;;;;;;19.75;49.21;99734.58;1722633;83;21559;-81
2021/09/17 07:13:05;;;;;;;18.77;6.22;;;;;;;19.98;49.66;99735.36;1722824;83;20984;-80
2021/09/17 07:15:31;;;;;;;18.10;6.15;;;;;;;20.07;49.66;99730.09;1722832;83;21056;-81
2021/09/17 07:17:58;;;;;;;18.85;6.55;;;;;;;20.15;50.23;99725.94;1722672;83;21599;-80
2021/09/17 07:20:25;;;;;;;20.77;7.58;;;;;;;20.22;50.81;99726.66;1722911;83;21126;-79
2021/09/17 07:22:52;;;;;;;17.37;6.33;;;;;;;20.27;51.19;99728.45;1728622;82;21593;-81
2021/09/17 07:25:19;;;;;;;14.87;6.97;;;;;;;20.24;51.93;99728.69;1721584;81;21048;-81
2021/09/17 07:27:46;;;;;;;19.23;7.15;;;;;;;20.28;52.37;99719.44;1719502;82;21021;-80
2021/09/17 07:30:14;;;;;;;16.52;7.33;;;;;;;20.34;52.73;99727.45;1702281;83;21077;-80
2021/09/17 07:32:42;;;;;;;18.62;7.92;;;;;;;20.46;52.73;99720.21;1677722;84;21131;-81
2021/09/17 07:35:09;;;;;;;18.32;8.20;;;;;;;20.52;52.85;99712.98;1683226;84;21513;-80
2021/09/17 07:37:35;;;;;;;25.48;7.65;;;;;;;20.55;53.21;99716.75;1673773;84;21123;-80
2021/09/17 11:20:57;;;;;;;15.18;7.83;;;;;;;21.25;57.08;99531.72;1818692;78;22767;-75
2021/09/17 11:23:36;;;;;;;21.85;8.68;;;;;;;21.25;56.54;99522.84;1779333;79;21205;-74
2021/09/17 11:26:02;;;;;;;21.82;7.50;;;;;;;21.28;56.46;99522.56;1804129;79;21126;-74
2021/09/17 11:28:29;;;;;;;15.63;6.83;;;;;;;21.27;55.75;99512.34;1803379;79;21103;-75
2021/09/17 11:31:16;;;;;;;18.27;7.20;;;;;;;21.24;55.18;99518.49;1804192;79;21519;-73
2021/09/17 11:33:44;;;;;;;18.87;7.70;;;;;;;21.23;55.38;99520.80;1804648;79;22211;-76
2021/09/17 11:36:19;;;;;;;16.10;7.78;;;;;;;21.22;55.60;99511.09;1803958;79;21549;-76
2021/09/17 11:38:47;;;;;;;13.85;7.12;;;;;;;21.22;55.23;99507.08;1758705;79;21331;-77
2021/09/17 11:41:17;;;;;;;;;;;;;;;21.19;55.30;99505.99;1806750;79;20965;-76
2021/09/17 11:43:53;;;;;;;21.02;8.83;;;;;;;21.19;55.30;99504.66;1803206;79;20232;-76
2021/09/17 11:46:27;;;;;;;18.87;8.90;;;;;;;21.18;55.19;99498.96;1782437;79;21028;-76
2021/09/17 11:48:59;;;;;;;14.70;7.53;;;;;;;21.20;54.69;99498.33;1783494;79;21051;-76
2021/09/17 11:51:30;;;;;;;21.50;8.63;;;;;;;21.20;54.79;99495.66;1771121;79;21653;-77
2021/09/17 11:53:58;;;;;;;18.85;8.98;;;;;;;21.21;54.59;99497.33;1786238;78;21107;-75
2021/09/17 11:56:27;;;;;;;19.95;9.90;;;;;;;21.18;54.60;99494.95;1787581;79;21077;-76
2021/09/17 11:58:59;;;;;;;27.98;13.32;;;;;;;21.24;54.64;99493.05;1795551;78;21064;-77
2021/09/17 12:01:30;;;;;;;31.37;15.38;;;;;;;21.21;54.43;99486.62;1792153;78;21090;-77
2021/09/17 12:03:59;;;;;;;41.18;15.70;;;;;;;21.24;54.60;99489.04;1784430;79;21169;-77
2021/09/17 12:06:28;;;;;;;35.00;17.90;;;;;;;21.23;54.55;99488.67;1755596;79;21747;-77
2021/09/17 12:08:57;;;;;;;43.60;18.48;;;;;;;21.22;54.38;99477.12;1715488;80;21079;-75
2021/09/17 12:11:25;;;;;;;48.53;18.97;;;;;;;21.22;54.15;99470.42;1764164;79;21146;-76
2021/09/17 12:13:56;;;;;;;42.10;18.73;;;;;;;21.24;54.54;99472.97;1760558;80;21651;-77
2021/09/17 12:16:25;;;;;;;36.30;17.45;;;;;;;21.26;54.44;99472.34;1764931;80;21082;-77
2021/09/17 12:19:05;;;;;;;45.15;19.60;;;;;;;21.30;54.50;99467.03;1757310;80;21065;-77
2021/09/17 12:21:33;;;;;;;41.33;17.90;;;;;;;21.36;54.61;99469.16;1761099;79;21119;-78
2021/09/17 12:24:17;;;;;;;42.08;18.42;;;;;;;21.42;54.36;99470.44;1744779;80;21515;-78
2021/09/17 12:26:59;;;;;;;30.15;16.10;;;;;;;21.45;54.23;99460.30;1767597;79;21330;-77
2021/09/17 12:29:27;;;;;;;27.27;13.88;;;;;;;21.48;54.10;99460.00;1740793;82;21102;-77
2021/09/17 12:31:54;;;;;;;28.77;13.65;;;;;;;21.49;54.08;99453.67;1787069;80;21037;-76
2021/09/17 12:34:22;;;;;;;25.90;10.72;;;;;;;21.50;54.34;99452.67;1787276;80;21017;-77
2021/09/17 12:36:52;;;;;;;28.35;12.68;;;;;;;21.49;54.23;99445.64;1775518;79;21067;-78
2021/09/17 12:39:27;;;;;;;26.80;12.47;;;;;;;21.47;54.28;99454.30;1732237;80;21103;-77
2021/09/17 12:42:08;;;;;;;31.27;11.28;;;;;;;21.43;54.52;99440.84;1785747;80;21154;-77
2021/09/17 12:44:44;;;;;;;31.60;13.43;;;;;;;21.44;54.61;99441.67;1785242;80;21052;-83
2021/09/17 12:47:12;;;;;;;59.15;29.48;;;;;;;21.39;53.94;99443.41;1787688;80;21075;-77
2021/09/17 12:49:39;;;;;;;66.15;33.75;;;;;;;21.37;54.64;99438.69;1734875;81;21127;-78
2021/09/17 12:52:06;;;;;;;40.80;21.07;;;;;;;21.35;54.87;99439.36;1778323;80;21102;-78
2021/09/17 12:54:39;;;;;;;31.10;14.75;;;;;;;21.34;54.87;99432.29;1788455;80;21067;-78
2021/09/17 12:57:21;;;;;;;41.73;21.85;;;;;;;21.31;54.82;99428.57;1771318;80;21044;-77
2021/09/17 13:00:08;;;;;;;28.80;13.78;;;;;;;21.30;54.83;99432.22;1769405;80;21095;-78
2021/09/17 13:02:35;;;;;;;37.33;16.10;;;;;;;21.30;54.90;99429.07;1776023;78;21158;-74
2021/09/17 13:05:06;;;;;;;31.70;15.55;;;;;;;21.32;54.94;99424.39;1781988;80;21099;-74
2021/09/17 13:07:34;;;;;;;27.62;14.05;;;;;;;21.35;55.09;99438.02;1782604;78;21519;-74
2021/09/17 13:10:00;;;;;;;26.30;10.98;;;;;;;21.35;54.82;99436.67;1781748;80;21111;-73
2021/09/17 13:12:29;;;;;;;19.67;8.45;;;;;;;21.37;54.93;99430.66;1791422;78;21100;-74
2021/09/17 13:14:56;;;;;;;23.20;9.13;;;;;;;21.39;54.93;99424.66;1783560;80;21104;-74
2021/09/17 13:17:22;;;;;;;21.82;10.23;;;;;;;21.43;55.01;99427.45;1788197;80;21064;-74
2021/09/17 13:19:51;;;;;;;25.77;11.63;;;;;;;21.43;55.15;99420.75;1780988;80;21096;-73
2021/09/17 13:22:18;;;;;;;30.65;12.82;;;;;;;21.43;55.57;99419.41;1775837;79;21029;-74
2021/09/17 13:24:46;;;;;;;19.87;8.73;;;;;;;21.42;55.92;99424.91;1765906;80;21116;-73
2021/09/17 13:27:13;;;;;;;21.55;9.53;;;;;;;21.37;56.36;99420.81;1772208;80;21124;-74
2021/09/17 13:29:41;;;;;;;32.50;16.77;;;;;;;21.35;56.79;99426.80;1772112;79;22104;-76
2021/09/17 13:32:07;;;;;;;19.77;11.65;;;;;;;21.33;56.94;99413.20;1775527;79;22110;-78
2021/09/17 13:34:34;;;;;;;19.45;9.53;;;;;;;21.28;57.56;99418.12;1769097;80;21041;-77
2021/09/17 13:37:00;;;;;;;29.67;13.28;;;;;;;21.23;58.20;99420.39;1769284;80;21096;-80
2021/09/17 13:39:27;;;;;;;24.32;14.83;;;;;;;21.18;58.61;99418.64;1772837;80;21039;-79
2021/09/17 13:41:55;;;;;;;20.80;10.25;;;;;;;21.13;58.56;99410.53;1757743;80;21084;-78
2021/09/17 13:44:22;;;;;;;22.85;9.83;;;;;;;21.15;59.49;99407.72;1766240;79;21155;-79
2021/09/17 13:46:49;;;;;;;28.87;16.10;;;;;;;21.12;59.60;99410.70;1761090;80;21057;-79
2021/09/17 13:49:15;;;;;;;19.45;9.60;;;;;;;21.09;59.20;99413.13;1764663;79;21575;-79
2021/09/17 13:51:43;;;;;;;21.80;10.43;;;;;;;21.05;59.96;99412.22;1770437;80;21025;-79
2021/09/17 13:54:10;;;;;;;20.72;10.10;;;;;;;21.05;60.12;99413.09;1771555;80;21130;-78
2021/09/17 13:56:36;;;;;;;28.42;9.38;;;;;;;21.04;59.80;99414.05;1773663;80;21104;-78
2021/09/17 13:59:03;;;;;;;24.15;11.88;;;;;;;20.98;59.96;99408.42;1773585;80;21037;-78
2021/09/17 14:01:30;;;;;;;20.32;11.28;;;;;;;21.03;59.92;99410.20;1772635;80;21053;-78
2021/09/17 14:03:56;;;;;;;23.57;10.45;;;;;;;21.03;59.52;99415.06;1773240;79;21196;-78
2021/09/17 14:06:23;;;;;;;27.82;13.30;;;;;;;21.07;60.12;99408.91;1774044;80;21053;-78
2021/09/17 14:08:49;;;;;;;23.18;10.88;;;;;;;21.10;59.57;99413.50;1764617;80;22088;-78
2021/09/17 14:11:17;;;;;;;23.12;11.55;;;;;;;21.13;59.88;99394.47;1760465;81;21135;-78
2021/09/17 14:13:45;;;;;;;25.43;12.23;;;;;;;21.18;59.99;99403.91;1766036;80;21060;-77
2021/09/17 14:16:13;;;;;;;25.25;11.20;;;;;;;21.18;59.42;99403.41;1771857;80;21025;-75
2021/09/17 14:18:41;;;;;;;19.85;11.85;;;;;;;21.16;60.19;99402.23;1770318;80;21042;-77
2021/09/17 14:21:08;;;;;;;22.37;11.45;;;;;;;21.12;60.12;99400.83;1774823;80;21137;-77
2021/09/17 14:23:34;;;;;;;27.45;10.55;;;;;;;21.03;60.73;99408.37;1747346;80;21124;-77
2021/09/17 14:26:03;;;;;;;20.43;11.55;;;;;;;20.95;61.36;99394.83;1763227;80;21060;-77
2021/09/17 14:28:29;;;;;;;21.30;10.45;;;;;;;20.85;61.14;99388.64;1783614;80;21111;-78
2021/09/17 14:31:01;;;;;;;20.02;11.57;;;;;;;20.79;62.27;99395.89;1783874;80;21015;-78
2021/09/17 14:33:25;;;;;;;21.10;10.18;;;;;;;20.72;62.57;99396.44;1782438;80;21175;-77
2021/09/17 14:35:51;;;;;;;19.60;9.60;;;;;;;20.66;62.53;99402.36;1781398;79;21626;-76
2021/09/17 14:38:17;;;;;;;21.52;10.65;;;;;;;20.58;63.54;99397.34;1780970;80;21084;-78
2021/09/17 14:40:44;;;;;;;18.27;9.43;;;;;;;20.50;63.69;99404.20;1785538;80;21100;-77
2021/09/17 14:43:11;;;;;;;16.97;9.70;;;;;;;20.40;64.85;99395.80;1784317;80;21527;-76
2021/09/17 14:45:38;;;;;;;20.20;10.58;;;;;;;20.39;65.06;99394.96;1741953;81;21156;-76
2021/09/17 14:48:07;;;;;;;16.55;9.40;;;;;;;20.33;64.91;99395.50;1785937;80;21041;-76
2021/09/17 14:50:35;;;;;;;18.70;10.43;;;;;;;20.24;66.20;99389.14;1708530;82;21120;-76
2021/09/17 14:53:01;;;;;;;20.05;10.72;;;;;;;20.23;65.21;99384.78;1776541;80;21040;-77
2021/09/17 14:55:28;;;;;;;19.65;10.48;;;;;;;20.14;66.89;99380.26;1771393;80;21027;-76
2021/09/17 14:57:56;;;;;;;17.27;10.35;;;;;;;20.15;67.10;99381.94;1771327;80;21016;-76
2021/09/17 15:00:25;;;;;;;44.38;14.05;;;;;;;20.13;65.99;99379.92;1774924;79;21582;-74
2021/09/17 15:02:51;;;;;;;34.70;11.38;;;;;;;20.12;67.66;99376.87;1793368;79;21417;-76
2021/09/17 15:05:18;;;;;;;20.52;10.13;;;;;;;20.10;67.95;99374.83;1792056;79;21341;-76
2021/09/17 15:07:44;;;;;;;31.60;11.25;;;;;;;20.03;68.20;99373.68;1794712;79;21072;-76